createdAt,value
2023-01-05T00:01:38.623Z,79.40
2023-01-05T00:05:02.187Z,78.90
2023-01-05T00:08:25.658Z,79.60
2023-01-05T00:12:06.958Z,78.70
2023-01-05T00:15:48.847Z,78.70
2023-01-05T00:19:37.240Z,78.80
2023-01-05T00:23:01.475Z,79.80
2023-01-05T00:26:24.991Z,79.00
2023-01-05T00:29:48.554Z,78.80
2023-01-05T00:33:14.085Z,78.80
2023-01-05T00:36:40.508Z,79.00
2023-01-05T00:40:04.429Z,79.10
2023-01-05T00:43:28.329Z,79.20
2023-01-05T00:46:51.867Z,79.20
2023-01-05T00:50:18.578Z,79.20
2023-01-05T00:53:43.389Z,79.30
2023-01-05T00:57:07.343Z,79.30
2023-01-05T01:00:32.789Z,79.50
2023-01-05T01:03:57.335Z,79.30
2023-01-05T01:07:20.906Z,79.40
2023-01-05T01:10:45.883Z,79.50
2023-01-05T01:14:13.870Z,79.20
2023-01-05T01:17:37.816Z,79.50
2023-01-05T01:21:01.415Z,79.20
2023-01-05T01:24:28.031Z,79.40
2023-01-05T01:27:52.829Z,79.30
2023-01-05T01:31:16.500Z,79.20
2023-01-05T01:34:40.423Z,79.30
2023-01-05T01:38:04.017Z,79.40
2023-01-05T01:41:27.954Z,79.30
2023-01-05T01:44:59.385Z,79.40
2023-01-05T01:48:27.417Z,79.40
2023-01-05T01:51:52.350Z,80.20
2023-01-05T01:55:16.667Z,79.30
2023-01-05T01:58:40.402Z,79.40
2023-01-05T02:02:08.951Z,79.30
2023-01-05T02:05:37.110Z,79.50
2023-01-05T02:09:01.075Z,79.60
2023-01-05T02:12:43.858Z,79.70
2023-01-05T02:16:25.463Z,79.40
2023-01-05T02:20:49.267Z,79.60
2023-01-05T02:24:43.235Z,79.50
2023-01-05T02:28:33.011Z,79.60
2023-01-05T02:32:09.849Z,79.50
2023-01-05T02:35:43.554Z,79.70
2023-01-05T02:39:15.234Z,79.90
2023-01-05T02:42:44.366Z,79.80
2023-01-05T02:46:09.492Z,80.00
2023-01-05T02:49:40.339Z,79.90
2023-01-05T02:53:13.609Z,80.00
2023-01-05T02:56:43.605Z,80.10
2023-01-05T03:00:10.778Z,80.10
2023-01-05T03:03:40.807Z,80.10
2023-01-05T03:07:12.433Z,80.90
2023-01-05T03:11:05.818Z,80.20
2023-01-05T03:14:36.415Z,80.10
2023-01-05T03:18:07.653Z,80.10
2023-01-05T03:21:51.491Z,80.10
2023-01-05T03:25:41.186Z,80.20
2023-01-05T03:29:23.374Z,80.30
2023-01-05T03:33:13.770Z,80.30
2023-01-05T03:36:45.990Z,80.20
2023-01-05T03:40:21.502Z,80.20
2023-01-05T03:43:49.487Z,80.20
2023-01-05T03:47:15.175Z,80.40
2023-01-05T03:50:40.763Z,80.50
2023-01-05T03:54:07.544Z,80.40
2023-01-05T03:57:34.219Z,80.50
2023-01-05T04:00:57.789Z,80.60
2023-01-05T04:04:22.307Z,80.50
2023-01-05T04:07:45.917Z,80.50
2023-01-05T04:11:18.433Z,80.60
2023-01-05T04:14:49.710Z,80.70
2023-01-05T04:18:15.002Z,80.60
2023-01-05T04:21:39.723Z,81.00
2023-01-05T04:25:05.162Z,80.80
2023-01-05T04:28:29.233Z,80.70
2023-01-05T04:31:56.072Z,80.80
2023-01-05T04:35:20.567Z,80.90
2023-01-05T04:38:45.321Z,80.90
2023-01-05T04:42:08.907Z,81.00
2023-01-05T04:45:33.209Z,81.00
2023-01-05T04:48:58.066Z,80.90
2023-01-05T04:52:21.981Z,81.00
2023-01-05T04:55:46.757Z,80.90
2023-01-05T04:59:10.382Z,80.90
2023-01-05T05:02:35.203Z,81.00
2023-01-05T05:06:01.121Z,81.00
2023-01-05T05:09:25.781Z,81.00
2023-01-05T05:12:50.289Z,81.00
2023-01-05T05:16:15.109Z,81.10
2023-01-05T05:19:41.076Z,81.10
2023-01-05T05:23:06.628Z,81.20
2023-01-05T05:26:31.019Z,80.80
2023-01-05T05:29:56.031Z,81.00
2023-01-05T05:33:19.545Z,81.20
2023-01-05T05:36:43.312Z,81.30
2023-01-05T05:40:10.168Z,81.40
2023-01-05T05:43:33.638Z,81.30
2023-01-05T05:46:57.478Z,81.20
2023-01-05T05:50:20.973Z,81.30
2023-01-05T05:53:44.360Z,81.30
2023-01-05T05:57:09.559Z,81.30
2023-01-05T06:00:32.999Z,81.20
2023-01-05T06:03:56.529Z,81.10
2023-01-05T06:07:20.162Z,81.10
2023-01-05T06:10:43.597Z,81.00
2023-01-05T06:14:08.466Z,80.80
2023-01-05T06:17:31.894Z,80.80
2023-01-05T06:21:01.313Z,80.90
2023-01-05T06:24:26.079Z,81.00
2023-01-05T06:27:49.502Z,81.00
2023-01-05T06:31:14.498Z,81.00
2023-01-05T06:34:37.936Z,81.20
2023-01-05T06:38:01.492Z,81.30
2023-01-05T06:41:24.940Z,81.50
2023-01-05T06:44:48.308Z,81.70
2023-01-05T06:48:13.311Z,81.80
2023-01-05T06:51:37.050Z,82.00
2023-01-05T06:55:00.484Z,82.20
2023-01-05T06:58:23.884Z,82.30
2023-01-05T07:01:47.428Z,82.50
2023-01-05T07:05:12.463Z,82.50
2023-01-05T07:08:35.950Z,82.60
2023-01-05T07:11:59.797Z,82.70
2023-01-05T07:15:23.284Z,82.80
2023-01-05T07:18:46.760Z,83.00
2023-01-05T07:22:11.947Z,83.00
2023-01-05T07:25:35.441Z,83.10
2023-01-05T07:28:59.147Z,83.10
2023-01-05T07:32:22.743Z,83.20
2023-01-05T07:35:46.317Z,83.00
2023-01-05T07:39:11.173Z,82.90
2023-01-05T07:42:35.247Z,82.80
2023-01-05T07:46:00.896Z,82.50
2023-01-05T07:49:24.613Z,82.30
2023-01-05T07:52:48.214Z,81.70
2023-01-05T07:56:14.676Z,81.80
2023-01-05T07:59:38.105Z,81.80
2023-01-05T08:03:01.730Z,81.60
2023-01-05T08:06:25.401Z,81.70
2023-01-05T08:10:06.542Z,81.50
2023-01-05T08:13:49.361Z,81.40
2023-01-05T08:17:12.855Z,80.90
2023-01-05T08:20:36.398Z,80.70
2023-01-05T08:24:00.192Z,80.70
2023-01-05T08:27:24.098Z,80.90
2023-01-05T08:30:48.950Z,81.00
2023-01-05T08:34:12.409Z,79.90
2023-01-05T08:37:35.813Z,79.90
2023-01-05T08:41:00.744Z,80.50
2023-01-05T08:44:24.188Z,80.50
2023-01-05T08:47:52.117Z,80.10
2023-01-05T08:51:15.856Z,80.30
2023-01-05T08:54:39.303Z,80.00
2023-01-05T08:58:02.822Z,79.50
2023-01-05T09:01:26.946Z,79.10
2023-01-05T09:04:51.959Z,79.50
2023-01-05T09:08:15.449Z,78.90
2023-01-05T09:11:39.116Z,79.20
2023-01-05T09:15:02.705Z,79.10
2023-01-05T09:18:28.157Z,79.20
2023-01-05T09:21:53.727Z,78.80
2023-01-05T09:25:17.233Z,77.70
2023-01-05T09:28:41.403Z,77.40
2023-01-05T09:32:07.479Z,77.50
2023-01-05T09:35:30.941Z,76.80
2023-01-05T09:38:57.215Z,76.70
2023-01-05T09:42:27.412Z,75.70
2023-01-05T09:45:51.980Z,75.70
2023-01-05T09:49:23.916Z,75.40
2023-01-05T09:52:48.124Z,74.40
2023-01-05T09:57:07.546Z,74.10
2023-01-05T10:00:18.907Z,74.10
2023-01-05T10:04:03.419Z,74.00
2023-01-05T10:07:42.176Z,74.40
2023-01-05T10:11:32.768Z,74.80
2023-01-05T10:15:06.631Z,75.00
2023-01-05T10:18:34.175Z,74.50
2023-01-05T10:22:11.829Z,74.50
2023-01-05T10:25:45.886Z,74.50
2023-01-05T10:29:14.773Z,74.40
2023-01-05T10:33:21.867Z,74.40
2023-01-05T10:37:08.771Z,74.60
2023-01-05T10:40:53.173Z,74.60
2023-01-05T10:44:49.202Z,74.20
2023-01-05T10:48:18.701Z,73.30
2023-01-05T10:51:44.231Z,74.10
2023-01-05T10:55:17.326Z,74.80
2023-01-05T10:58:44.086Z,75.00
2023-01-05T11:02:14.622Z,74.30
2023-01-05T11:05:45.247Z,73.40
2023-01-05T11:09:22.365Z,73.60
2023-01-05T11:12:57.217Z,73.90
2023-01-05T11:16:24.270Z,72.80
2023-01-05T11:19:53.965Z,72.90
2023-01-05T11:23:37.359Z,72.10
2023-01-05T11:27:05.429Z,69.80
2023-01-05T11:30:29.073Z,71.50
2023-01-05T11:33:58.816Z,71.60
2023-01-05T11:37:27.428Z,72.30
2023-01-05T11:40:53.818Z,71.50
2023-01-05T11:44:24.053Z,70.60
2023-01-05T11:47:51.511Z,71.00
2023-01-05T11:51:35.586Z,71.00
2023-01-05T11:54:59.494Z,70.30
2023-01-05T11:58:28.252Z,70.10
2023-01-05T12:02:18.737Z,70.20
2023-01-05T12:05:51.622Z,70.00
2023-01-05T12:09:32.644Z,69.60
2023-01-05T12:13:11.920Z,70.40
2023-01-05T12:16:47.472Z,70.60
2023-01-05T12:20:36.415Z,70.00
2023-01-05T12:24:39.921Z,70.10
2023-01-05T12:28:41.944Z,70.00
2023-01-05T12:33:44.750Z,70.40
2023-01-05T12:36:35.085Z,70.20
2023-01-05T12:40:33.264Z,69.60
2023-01-05T12:44:20.586Z,69.60
2023-01-05T12:47:58.354Z,69.90
2023-01-05T12:51:29.875Z,69.50
2023-01-05T12:55:02.370Z,70.20
2023-01-05T12:58:34.119Z,69.80
2023-01-05T13:02:04.972Z,70.00
2023-01-05T13:05:35.485Z,70.10
2023-01-05T13:09:04.758Z,70.10
2023-01-05T13:12:28.228Z,69.90
2023-01-05T13:16:01.763Z,69.80
2023-01-05T13:19:31.748Z,69.80
2023-01-05T13:23:15.752Z,70.30
2023-01-05T13:26:39.533Z,70.40
2023-01-05T13:30:05.781Z,69.90
2023-01-05T13:33:56.032Z,70.90
2023-01-05T13:38:08.590Z,69.30
2023-01-05T13:41:59.736Z,70.20
2023-01-05T13:45:51.051Z,70.60
2023-01-05T13:49:39.887Z,70.80
2023-01-05T13:53:14.468Z,70.00
2023-01-05T13:56:41.013Z,70.10
2023-01-05T14:00:17.941Z,70.30
2023-01-05T14:03:50.646Z,70.40
2023-01-05T14:07:18.773Z,70.10
2023-01-05T14:11:09.771Z,70.10
2023-01-05T14:15:03.608Z,70.50
2023-01-05T14:18:52.570Z,70.10
2023-01-05T14:22:40.453Z,69.60
2023-01-05T14:26:04.962Z,69.60
2023-01-05T14:30:02.166Z,70.10
2023-01-05T14:33:26.458Z,69.80
2023-01-05T14:37:07.643Z,70.90
2023-01-05T14:40:42.336Z,70.20
2023-01-05T14:44:19.044Z,70.30
2023-01-05T14:47:49.213Z,70.60
2023-01-05T14:51:26.144Z,70.90
2023-01-05T14:55:36.749Z,70.90
2023-01-05T14:59:15.668Z,70.90
2023-01-05T15:02:54.773Z,71.40
2023-01-05T15:06:29.063Z,70.90
2023-01-05T15:10:22.243Z,71.20
2023-01-05T15:14:35.112Z,70.90
2023-01-05T15:18:59.042Z,71.60
2023-01-05T15:22:52.749Z,71.10
2023-01-05T15:26:35.048Z,71.50
2023-01-05T15:31:03.092Z,71.60
2023-01-05T15:34:34.950Z,71.20
2023-01-05T15:38:14.404Z,71.80
2023-01-05T15:41:38.088Z,72.10
2023-01-05T15:45:02.278Z,71.90
2023-01-05T15:48:33.779Z,71.60
2023-01-05T15:51:59.281Z,71.90
2023-01-05T15:55:23.969Z,71.80
2023-01-05T15:58:47.527Z,71.90
2023-01-05T16:02:18.864Z,72.00
2023-01-05T16:05:43.051Z,71.90
2023-01-05T16:09:26.361Z,72.30
2023-01-05T16:12:58.146Z,72.00
2023-01-05T16:16:51.311Z,72.00
2023-01-05T16:20:21.940Z,71.40
2023-01-05T16:23:53.459Z,69.80
2023-01-05T16:27:20.199Z,71.70
2023-01-05T16:30:46.299Z,72.10
2023-01-05T16:34:19.665Z,72.50
2023-01-05T16:37:43.150Z,72.30
2023-01-05T16:41:25.543Z,72.50
2023-01-05T16:44:58.387Z,72.40
2023-01-05T16:48:48.150Z,72.00
2023-01-05T16:52:24.425Z,72.10
2023-01-05T16:55:48.731Z,72.40
2023-01-05T16:59:49.942Z,72.60
2023-01-05T17:03:32.995Z,72.30
2023-01-05T17:06:57.931Z,72.00
2023-01-05T17:10:25.381Z,71.90
2023-01-05T17:13:53.411Z,72.60
2023-01-05T17:20:48.467Z,72.70
2023-01-05T17:24:14.859Z,72.60
2023-01-05T17:27:38.394Z,72.60
2023-01-05T17:31:03.555Z,72.80
2023-01-05T17:34:27.745Z,72.60
2023-01-05T17:37:52.911Z,72.90
2023-01-05T17:41:17.147Z,72.50
2023-01-05T17:44:40.933Z,72.80
2023-01-05T17:48:04.457Z,73.10
2023-01-05T17:51:29.051Z,72.90
2023-01-05T17:54:53.948Z,72.90
2023-01-05T17:58:17.624Z,72.90
2023-01-05T18:01:41.136Z,73.20
2023-01-05T18:05:05.371Z,73.10
2023-01-05T18:08:29.007Z,73.10
2023-01-05T18:11:53.983Z,72.90
2023-01-05T18:15:18.365Z,72.80
2023-01-05T18:18:42.052Z,72.90
2023-01-05T18:22:05.777Z,72.90
2023-01-05T18:25:29.347Z,72.80
2023-01-05T18:28:54.817Z,72.10
2023-01-05T18:32:18.854Z,71.80
2023-01-05T18:35:43.971Z,72.80
2023-01-05T18:39:15.934Z,73.00
2023-01-05T18:42:40.530Z,72.00
2023-01-05T18:46:06.306Z,73.00
2023-01-05T18:49:30.371Z,73.10
2023-01-05T18:52:54.075Z,73.40
2023-01-05T18:56:17.697Z,73.50
2023-01-05T18:59:41.305Z,73.80
2023-01-05T19:03:06.172Z,73.90
2023-01-05T19:06:29.727Z,74.10
2023-01-05T19:09:54.052Z,74.20
2023-01-05T19:13:17.575Z,74.40
2023-01-05T19:16:41.108Z,74.60
2023-01-05T19:20:07.554Z,74.70
2023-01-05T19:23:31.387Z,74.70
2023-01-05T19:26:55.034Z,74.80
2023-01-05T19:30:20.458Z,74.50
2023-01-05T19:33:44.512Z,74.50
2023-01-05T19:37:09.352Z,74.30
2023-01-05T19:40:32.869Z,74.20
2023-01-05T19:43:57.878Z,74.00
2023-01-05T19:47:21.632Z,74.10
2023-01-05T19:50:45.129Z,74.00
2023-01-05T19:54:12.727Z,74.10
2023-01-05T19:57:36.491Z,74.20
2023-01-05T20:01:07.535Z,74.70
2023-01-05T20:04:31.593Z,74.60
2023-01-05T20:07:55.896Z,75.60
2023-01-05T20:11:35.705Z,74.70
2023-01-05T20:14:59.364Z,75.00
2023-01-05T20:18:22.812Z,75.10
2023-01-05T20:21:46.446Z,75.30
2023-01-05T20:25:10.935Z,75.70
2023-01-05T20:28:36.313Z,75.70
2023-01-05T20:32:04.090Z,75.80
2023-01-05T20:35:30.643Z,76.10
2023-01-05T20:38:54.856Z,76.80
2023-01-05T20:42:18.575Z,76.20
2023-01-05T20:45:43.551Z,76.30
2023-01-05T20:49:07.788Z,76.30
2023-01-05T20:52:31.251Z,76.70
2023-01-05T20:55:55.282Z,76.40
2023-01-05T20:59:22.904Z,76.30
2023-01-05T21:02:49.515Z,76.50
2023-01-05T21:06:16.257Z,76.30
2023-01-05T21:09:41.402Z,76.50
2023-01-05T21:13:30.652Z,76.40
2023-01-05T21:16:52.900Z,76.30
2023-01-05T21:20:18.140Z,76.20
2023-01-05T21:23:44.487Z,76.10
2023-01-05T21:27:08.390Z,75.80
2023-01-05T21:30:32.295Z,75.40
2023-01-05T21:33:56.102Z,75.20
2023-01-05T21:37:21.104Z,75.10
2023-01-05T21:40:44.984Z,75.00
2023-01-05T21:44:10.804Z,74.90
2023-01-05T21:47:35.966Z,74.80
2023-01-05T21:51:18.153Z,74.60
2023-01-05T21:55:00.635Z,74.80
2023-01-05T21:58:24.081Z,75.10
2023-01-05T22:01:47.811Z,75.30
2023-01-05T22:05:11.440Z,75.60
2023-01-05T22:08:34.929Z,75.70
2023-01-05T22:11:59.835Z,75.90
2023-01-05T22:15:23.459Z,75.80
2023-01-05T22:18:46.977Z,75.90
2023-01-05T22:22:10.554Z,75.90
2023-01-05T22:25:35.780Z,75.40
2023-01-05T22:29:01.489Z,74.90
2023-01-05T22:32:25.160Z,75.70
2023-01-05T22:35:48.667Z,76.10
2023-01-05T22:39:12.285Z,76.40
2023-01-05T22:42:35.821Z,76.60
2023-01-05T22:46:06.039Z,76.90
2023-01-05T22:49:30.638Z,77.10
2023-01-05T22:52:54.167Z,77.30
2023-01-05T22:56:20.300Z,77.40
2023-01-05T22:59:43.773Z,77.60
2023-01-05T23:03:08.653Z,77.70
2023-01-05T23:06:32.814Z,77.60
2023-01-05T23:09:56.326Z,78.00
2023-01-05T23:16:43.675Z,76.40
2023-01-05T23:20:11.238Z,77.30
2023-01-05T23:23:35.301Z,77.70
2023-01-05T23:26:58.791Z,77.60
2023-01-05T23:30:22.329Z,77.30
2023-01-05T23:33:47.546Z,77.10
2023-01-05T23:37:12.875Z,77.40
2023-01-05T23:40:41.597Z,77.10
2023-01-05T23:44:07.841Z,77.30
2023-01-05T23:47:31.585Z,77.30
2023-01-05T23:50:57.089Z,76.40
2023-01-05T23:54:22.144Z,75.90
2023-01-05T23:57:45.765Z,76.50
